| time (UTC) | temp C | wind direction | speed KPH | gust KPH | rain 1hr cm | rain 24hr cm | rain mn cm | humidity % | barometer mb |
| 20260505065603 | 7 | 17 | 1.6 | 3.2 | 0.00 | 0.36 | 0.00 | 94 | 1012.1 |
| 20260505065100 | 7 | 160 | 0.0 | 3.2 | 0.00 | 0.36 | 0.00 | 94 | 1012.0 |
| 20260505064558 | 7 | 0 | 0.0 | 0.0 | 0.00 | 0.36 | 0.00 | 93 | 1012.0 |
| 20260505064059 | 7 | 0 | 0.0 | 0.0 | 0.00 | 0.36 | 0.00 | 94 | 1012.0 |
| 20260505063559 | 7 | 0 | 0.0 | 0.0 | 0.00 | 0.36 | 0.00 | 93 | 1011.9 |
| 20260505063059 | 7 | 0 | 0.0 | 0.0 | 0.00 | 0.36 | 0.00 | 93 | 1011.9 |
| 20260505062602 | 7 | 0 | 0.0 | 0.0 | 0.00 | 0.36 | 0.00 | 93 | 1011.8 |
| 20260505062100 | 7 | 0 | 0.0 | 1.6 | 0.00 | 0.36 | 0.00 | 94 | 1011.8 |
| 20260505061558 | 7 | 0 | 0.0 | 1.6 | 0.00 | 0.36 | 0.00 | 93 | 1011.9 |
| 20260505061059 | 7 | 0 | 0.0 | 1.6 | 0.00 | 0.36 | 0.00 | 93 | 1012.0 |
| 20260505060602 | 7 | 0 | 0.0 | 1.6 | 0.00 | 0.36 | 0.00 | 93 | 1011.8 |
| 20260505060059 | 7 | 0 | 0.0 | 1.6 | 0.00 | 0.36 | 0.00 | 93 | 1012.0 |
| 20260505055603 | 7 | 0 | 0.0 | 0.0 | 0.00 | 0.36 | 0.36 | 93 | 1011.8 |
| 20260505055059 | 7 | 0 | 0.0 | 0.0 | 0.00 | 0.36 | 0.36 | 92 | 1011.9 |
| 20260505054602 | 7 | 0 | 0.0 | 1.6 | 0.00 | 0.36 | 0.36 | 92 | 1012.1 |
| 20260505054102 | 7 | 0 | 0.0 | 1.6 | 0.00 | 0.36 | 0.36 | 93 | 1012.0 |
| 20260505053559 | 7 | 0 | 0.0 | 1.6 | 0.00 | 0.36 | 0.36 | 93 | 1012.0 |
| 20260505053100 | 7 | 0 | 0.0 | 3.2 | 0.00 | 0.36 | 0.36 | 92 | 1011.9 |
| 20260505052558 | 7 | 0 | 0.0 | 3.2 | 0.00 | 0.36 | 0.36 | 92 | 1011.7 |
| 20260505052059 | 7 | 0 | 1.6 | 3.2 | 0.00 | 0.36 | 0.36 | 92 | 1011.8 |
| 20260505051608 | 7 | 160 | 0.0 | 3.2 | 0.00 | 0.36 | 0.36 | 92 | 1011.7 |
| 20260505051100 | 7 | 0 | 0.0 | 3.2 | 0.00 | 0.36 | 0.36 | 92 | 1011.6 |
| 20260505050604 | 7 | 0 | 0.0 | 3.2 | 0.00 | 0.36 | 0.36 | 91 | 1011.6 |
| 20260505050107 | 7 | 0 | 0.0 | 3.2 | 0.00 | 0.36 | 0.36 | 91 | 1011.4 |
| 20260505041604 | 8 | 194 | 1.6 | 9.7 | 0.05 | 0.33 | 0.33 | 88 | 1011.8 |
| 20260505041058 | 8 | 0 | 3.2 | 9.7 | 0.05 | 0.33 | 0.33 | 88 | 1011.9 |
| 20260505040558 | 8 | 198 | 1.6 | 6.4 | 0.08 | 0.33 | 0.33 | 88 | 1011.9 |
| 20260505035601 | 8 | 254 | 1.6 | 11.3 | 0.15 | 0.33 | 0.33 | 87 | 1011.9 |
| 20260505035106 | 8 | 264 | 3.2 | 12.9 | 0.18 | 0.33 | 0.33 | 88 | 1011.8 |
| 20260505034602 | 8 | 220 | 4.8 | 12.9 | 0.20 | 0.33 | 0.33 | 88 | 1011.8 |
| 20260505034102 | 8 | 0 | 1.6 | 12.9 | 0.25 | 0.33 | 0.33 | 87 | 1011.7 |
| 20260505033602 | 8 | 235 | 4.8 | 12.9 | 0.30 | 0.33 | 0.33 | 87 | 1011.9 |
| 20260505033100 | 8 | 232 | 4.8 | 12.9 | 0.30 | 0.30 | 0.30 | 88 | 1012.0 |
| 20260505032559 | 8 | 254 | 4.8 | 12.9 | 0.28 | 0.28 | 0.28 | 88 | 1012.0 |
| 20260505032058 | 8 | 225 | 4.8 | 12.9 | 0.28 | 0.28 | 0.28 | 88 | 1012.0 |
| 20260505031601 | 8 | 220 | 4.8 | 11.3 | 0.28 | 0.28 | 0.28 | 87 | 1011.9 |
| 20260505031058 | 8 | 264 | 3.2 | 14.5 | 0.25 | 0.25 | 0.25 | 87 | 1011.9 |
| 20260505030558 | 8 | 263 | 8.0 | 14.5 | 0.25 | 0.25 | 0.25 | 86 | 1011.8 |
| 20260505030058 | 8 | 272 | 4.8 | 11.3 | 0.18 | 0.18 | 0.18 | 86 | 1011.5 |
| 20260505025559 | 9 | 259 | 3.2 | 11.3 | 0.18 | 0.18 | 0.18 | 85 | 1011.8 |
| 20260505025059 | 9 | 262 | 1.6 | 14.5 | 0.13 | 0.13 | 0.13 | 84 | 1011.7 |
| 20260505024608 | 9 | 256 | 4.8 | 17.7 | 0.10 | 0.10 | 0.10 | 82 | 1011.6 |
| 20260505024058 | 9 | 244 | 6.4 | 17.7 | 0.08 | 0.08 | 0.08 | 80 | 1011.5 |
| 20260505023558 | 10 | 261 | 9.7 | 16.1 | 0.00 | 0.00 | 0.00 | 79 | 1011.5 |
| 20260505023105 | 10 | 262 | 6.4 | 11.3 | 0.00 | 0.00 | 0.00 | 77 | 1011.4 |
| 20260505022559 | 10 | 296 | 3.2 | 6.4 | 0.00 | 0.00 | 0.00 | 77 | 1011.1 |
| 20260505022059 | 10 | 336 | 1.6 | 4.8 | 0.00 | 0.00 | 0.00 | 74 | 1011.0 |
| 20260505021602 | 10 | 336 | 1.6 | 6.4 | 0.00 | 0.00 | 0.00 | 73 | 1010.9 |
| 20260505021058 | 10 | 336 | 1.6 | 8.0 | 0.00 | 0.00 | 0.00 | 72 | 1010.9 |
| 20260505020558 | 10 | 350 | 1.6 | 9.7 | 0.00 | 0.00 | 0.00 | 71 | 1010.8 |
| 20260505020059 | 10 | 352 | 1.6 | 11.3 | 0.00 | 0.00 | 0.00 | 71 | 1011.0 |
| 20260505015559 | 10 | 360 | 3.2 | 16.1 | 0.00 | 0.00 | 0.00 | 71 | 1011.1 |
| 20260505015101 | 10 | 14 | 3.2 | 19.3 | 0.00 | 0.00 | 0.00 | 70 | 1010.9 |
| 20260505014600 | 10 | 309 | 4.8 | 19.3 | 0.00 | 0.00 | 0.00 | 69 | 1010.9 |
| 20260505014102 | 10 | 328 | 8.0 | 17.7 | 0.00 | 0.00 | 0.00 | 69 | 1010.8 |
| 20260505013558 | 10 | 319 | 8.0 | 17.7 | 0.00 | 0.00 | 0.00 | 68 | 1010.8 |
| 20260505013127 | 11 | 298 | 6.4 | 17.7 | 0.00 | 0.00 | 0.00 | 67 | 1010.6 |
| 20260505012558 | 11 | 339 | 8.0 | 20.9 | 0.00 | 0.00 | 0.00 | 67 | 1010.7 |
| 20260505012100 | 11 | 302 | 8.0 | 24.1 | 0.00 | 0.00 | 0.00 | 65 | 1010.8 |
| 20260505011615 | 11 | 309 | 12.9 | 24.1 | 0.00 | 0.00 | 0.00 | 64 | 1010.7 |
| 20260505011058 | 11 | 319 | 8.0 | 22.5 | 0.00 | 0.00 | 0.00 | 63 | 1010.6 |
| 20260505010601 | 12 | 344 | 9.7 | 24.1 | 0.00 | 0.00 | 0.00 | 61 | 1010.7 |
| 20260505010115 | 12 | 306 | 11.3 | 24.1 | 0.00 | 0.00 | 0.00 | 58 | 1010.6 |
| 20260505005559 | 13 | 316 | 6.4 | 17.7 | 0.00 | 0.00 | 0.00 | 56 | 1010.5 |
| 20260505005059 | 13 | 346 | 1.6 | 11.3 | 0.00 | 0.00 | 0.00 | 55 | 1010.2 |
| 20260505004603 | 13 | 331 | 3.2 | 11.3 | 0.00 | 0.00 | 0.00 | 54 | 1010.3 |
| 20260505004058 | 14 | 5 | 1.6 | 9.7 | 0.00 | 0.00 | 0.00 | 53 | 1010.2 |
| 20260505003601 | 14 | 344 | 1.6 | 8.0 | 0.00 | 0.00 | 0.00 | 52 | 1010.2 |
| 20260505003104 | 14 | 355 | 0.0 | 9.7 | 0.00 | 0.00 | 0.00 | 52 | 1010.1 |
| 20260505002558 | 14 | 324 | 4.8 | 12.9 | 0.00 | 0.00 | 0.00 | 52 | 1010.1 |
| 20260505002058 | 14 | 277 | 6.4 | 12.9 | 0.00 | 0.00 | 0.00 | 51 | 1010.1 |
| 20260505001559 | 15 | 293 | 3.2 | 6.4 | 0.00 | 0.00 | 0.00 | 50 | 1010.1 |
| 20260505001058 | 15 | 314 | 3.2 | 14.5 | 0.00 | 0.00 | 0.00 | 51 | 1010.0 |
| 20260505000559 | 15 | 5 | 4.8 | 14.5 | 0.00 | 0.00 | 0.00 | 52 | 1009.8 |
| 20260505000109 | 14 | 19 | 3.2 | 9.7 | 0.00 | 0.00 | 0.00 | 54 | 1009.8 |
| 20260504235559 | 13 | 15 | 3.2 | 8.0 | 0.00 | 0.00 | 0.00 | 57 | 1009.9 |
| 20260504235102 | 13 | 336 | 3.2 | 8.0 | 0.00 | 0.00 | 0.00 | 58 | 1010.0 |
| 20260504234604 | 13 | 327 | 3.2 | 8.0 | 0.00 | 0.00 | 0.00 | 58 | 1010.1 |
| 20260504234102 | 13 | 347 | 3.2 | 8.0 | 0.00 | 0.00 | 0.00 | 58 | 1010.0 |
| 20260504233558 | 13 | 320 | 3.2 | 8.0 | 0.00 | 0.00 | 0.00 | 55 | 1009.9 |
| 20260504233108 | 14 | 341 | 3.2 | 8.0 | 0.00 | 0.00 | 0.00 | 56 | 1009.8 |
| 20260504232559 | 14 | 325 | 3.2 | 4.8 | 0.00 | 0.00 | 0.00 | 54 | 1009.9 |
| 20260504232059 | 14 | 335 | 0.0 | 4.8 | 0.00 | 0.00 | 0.00 | 54 | 1009.9 |
| 20260504231601 | 14 | 0 | 0.0 | 6.4 | 0.00 | 0.00 | 0.00 | 54 | 1009.7 |
| 20260504231058 | 14 | 0 | 1.6 | 6.4 | 0.00 | 0.00 | 0.00 | 57 | 1009.9 |
| 20260504230601 | 14 | 325 | 1.6 | 19.3 | 0.00 | 0.00 | 0.00 | 55 | 1009.9 |
| 20260504230107 | 15 | 351 | 0.0 | 19.3 | 0.00 | 0.00 | 0.00 | 62 | 1009.8 |
| 20260504225559 | 15 | 235 | 6.4 | 19.3 | 0.00 | 0.00 | 0.00 | 50 | 1010.0 |
| 20260504225058 | 15 | 261 | 3.2 | 12.9 | 0.00 | 0.00 | 0.00 | 44 | 1009.8 |
| 20260504224559 | 15 | 266 | 6.4 | 19.3 | 0.00 | 0.00 | 0.00 | 45 | 1009.9 |
| 20260504224059 | 15 | 271 | 8.0 | 19.3 | 0.00 | 0.00 | 0.00 | 46 | 1010.0 |
| 20260504223559 | 15 | 268 | 11.3 | 22.5 | 0.00 | 0.00 | 0.00 | 45 | 1009.9 |
| 20260504223104 | 15 | 262 | 14.5 | 22.5 | 0.00 | 0.00 | 0.00 | 45 | 1010.1 |
| 20260504222601 | 16 | 263 | 8.0 | 14.5 | 0.00 | 0.00 | 0.00 | 43 | 1010.0 |
| 20260504222058 | 16 | 277 | 4.8 | 9.7 | 0.00 | 0.00 | 0.00 | 42 | 1009.7 |
| 20260504221603 | 16 | 331 | 3.2 | 12.9 | 0.00 | 0.00 | 0.00 | 41 | 1009.4 |
| 20260504221058 | 17 | 20 | 3.2 | 12.9 | 0.00 | 0.00 | 0.00 | 40 | 1009.1 |
| 20260504220558 | 17 | 360 | 3.2 | 14.5 | 0.00 | 0.00 | 0.00 | 40 | 1008.7 |
| 20260504220100 | 17 | 337 | 4.8 | 17.7 | 0.00 | 0.00 | 0.00 | 41 | 1008.5 |
| 20260504215559 | 17 | 71 | 4.8 | 17.7 | 0.00 | 0.00 | 0.00 | 42 | 1008.3 |
| 20260504215058 | 17 | 355 | 4.8 | 27.4 | 0.00 | 0.00 | 0.00 | 39 | 1008.2 |
| 20260504214614 | 17 | 49 | 11.3 | 27.4 | 0.00 | 0.00 | 0.00 | 39 | 1008.3 |
| 20260504214058 | 17 | 34 | 11.3 | 25.7 | 0.00 | 0.00 | 0.00 | 40 | 1008.6 |
| 20260504213558 | 17 | 49 | 16.1 | 32.2 | 0.00 | 0.00 | 0.00 | 41 | 1008.7 |
| 20260504213116 | 18 | 5 | 16.1 | 37.0 | 0.00 | 0.00 | 0.00 | 38 | 1008.6 |
| 20260504212559 | 18 | 352 | 16.1 | 37.0 | 0.00 | 0.00 | 0.00 | 36 | 1008.9 |
| 20260504212100 | 20 | 36 | 14.5 | 37.0 | 0.00 | 0.00 | 0.00 | 34 | 1008.8 |
| 20260504211559 | 20 | 346 | 19.3 | 35.4 | 0.00 | 0.00 | 0.00 | 33 | 1008.9 |
| 20260504211059 | 21 | 349 | 14.5 | 35.4 | 0.00 | 0.00 | 0.00 | 36 | 1008.9 |
| 20260504210559 | 18 | 12 | 16.1 | 32.2 | 0.00 | 0.00 | 0.00 | 39 | 1008.8 |
| 20260504205559 | 16 | 26 | 14.5 | 32.2 | 0.00 | 0.00 | 0.00 | 45 | 1009.0 |
| 20260504205101 | 16 | 343 | 9.7 | 30.6 | 0.00 | 0.00 | 0.00 | 42 | 1009.2 |
| 20260504204606 | 17 | 5 | 14.5 | 30.6 | 0.00 | 0.00 | 0.00 | 35 | 1009.4 |
| 20260504204058 | 19 | 48 | 11.3 | 30.6 | 0.00 | 0.00 | 0.00 | 30 | 1009.4 |
| 20260504203601 | 20 | 319 | 4.8 | 24.1 | 0.00 | 0.00 | 0.00 | 27 | 1009.2 |
| 20260504203107 | 22 | 105 | 9.7 | 24.1 | 0.00 | 0.00 | 0.00 | 26 | 1008.7 |
| 20260504202558 | 21 | 175 | 8.0 | 22.5 | 0.00 | 0.00 | 0.00 | 29 | 1008.5 |
| 20260504202059 | 20 | 134 | 8.0 | 27.4 | 0.00 | 0.00 | 0.00 | 30 | 1008.4 |
| 20260504201621 | 20 | 217 | 11.3 | 27.4 | 0.00 | 0.00 | 0.00 | 28 | 1008.3 |
| 20260504201058 | 20 | 178 | 9.7 | 20.9 | 0.00 | 0.00 | 0.00 | 29 | 1008.3 |
| 20260504200559 | 20 | 159 | 6.4 | 24.1 | 0.00 | 0.00 | 0.00 | 29 | 1008.5 |
| 20260504200111 | 20 | 188 | 12.9 | 41.8 | 0.00 | 0.00 | 0.00 | 27 | 1008.5 |
| 20260504195603 | 21 | 214 | 12.9 | 41.8 | 0.00 | 0.00 | 0.00 | 23 | 1008.3 |
| 20260504195059 | 21 | 286 | 8.0 | 17.7 | 0.00 | 0.00 | 0.00 | 25 | 1008.3 |
| 20260504194612 | 22 | 317 | 8.0 | 17.7 | 0.00 | 0.00 | 0.00 | 24 | 1008.2 |
| 20260504194059 | 22 | 327 | 6.4 | 14.5 | 0.00 | 0.00 | 0.00 | 22 | 1008.1 |
| 20260504193559 | 22 | 295 | 3.2 | 19.3 | 0.00 | 0.00 | 0.00 | 19 | 1007.9 |
| 20260504193113 | 22 | 261 | 4.8 | 19.3 | 0.00 | 0.00 | 0.00 | 19 | 1008.0 |
| 20260504192558 | 23 | 275 | 9.7 | 19.3 | 0.00 | 0.00 | 0.00 | 18 | 1007.9 |
| 20260504192104 | 22 | 266 | 6.4 | 17.7 | 0.00 | 0.00 | 0.00 | 19 | 1007.8 |
| 20260504191608 | 22 | 261 | 11.3 | 17.7 | 0.00 | 0.00 | 0.00 | 18 | 1007.8 |
| 20260504191059 | 22 | 311 | 6.4 | 19.3 | 0.00 | 0.00 | 0.00 | 19 | 1007.8 |
| 20260504190559 | 21 | 273 | 6.4 | 19.3 | 0.00 | 0.00 | 0.00 | 20 | 1008.0 |
| 20260504190116 | 22 | 268 | 9.7 | 20.9 | 0.00 | 0.00 | 0.00 | 20 | 1007.9 |
| 20260504185600 | 21 | 272 | 9.7 | 20.9 | 0.00 | 0.00 | 0.00 | 21 | 1008.0 |
| 20260504185059 | 22 | 277 | 16.1 | 27.4 | 0.00 | 0.00 | 0.00 | 20 | 1008.0 |
| 20260504184626 | 22 | 271 | 16.1 | 27.4 | 0.00 | 0.00 | 0.00 | 20 | 1008.0 |
| 20260504184059 | 23 | 293 | 14.5 | 27.4 | 0.00 | 0.00 | 0.00 | 19 | 1008.1 |
| 20260504183602 | 23 | 264 | 16.1 | 27.4 | 0.00 | 0.00 | 0.00 | 21 | 1008.2 |
| 20260504183100 | 22 | 287 | 14.5 | 27.4 | 0.00 | 0.00 | 0.00 | 23 | 1008.3 |
| 20260504182559 | 22 | 291 | 19.3 | 29.0 | 0.00 | 0.00 | 0.00 | 24 | 1008.3 |
| 20260504182101 | 22 | 330 | 20.9 | 29.0 | 0.00 | 0.00 | 0.00 | 24 | 1008.4 |
| 20260504181603 | 21 | 265 | 17.7 | 27.4 | 0.00 | 0.00 | 0.00 | 24 | 1008.6 |
| 20260504181102 | 21 | 283 | 17.7 | 27.4 | 0.00 | 0.00 | 0.00 | 24 | 1008.7 |
| 20260504180604 | 21 | 281 | 14.5 | 30.6 | 0.00 | 0.00 | 0.00 | 25 | 1008.7 |
| 20260504175559 | 21 | 245 | 16.1 | 29.0 | 0.00 | 0.00 | 0.00 | 25 | 1008.8 |
| 20260504175059 | 21 | 239 | 17.7 | 30.6 | 0.00 | 0.00 | 0.00 | 26 | 1008.9 |
| 20260504174602 | 21 | 279 | 19.3 | 32.2 | 0.00 | 0.00 | 0.00 | 26 | 1009.0 |
| 20260504174102 | 21 | 267 | 19.3 | 33.8 | 0.00 | 0.00 | 0.00 | 27 | 1009.1 |
| 20260504173559 | 20 | 251 | 20.9 | 33.8 | 0.00 | 0.00 | 0.00 | 27 | 1009.2 |
| 20260504173101 | 20 | 284 | 19.3 | 33.8 | 0.00 | 0.00 | 0.00 | 27 | 1009.3 |
| 20260504172601 | 20 | 292 | 16.1 | 30.6 | 0.00 | 0.00 | 0.00 | 28 | 1009.5 |
| 20260504172100 | 20 | 283 | 16.1 | 30.6 | 0.00 | 0.00 | 0.00 | 28 | 1009.6 |
| 20260504171613 | 19 | 287 | 19.3 | 30.6 | 0.00 | 0.00 | 0.00 | 28 | 1009.6 |
| 20260504171102 | 19 | 275 | 14.5 | 24.1 | 0.00 | 0.00 | 0.00 | 29 | 1009.7 |
| 20260504170603 | 18 | 271 | 14.5 | 24.1 | 0.00 | 0.00 | 0.00 | 29 | 1009.8 |
| 20260504160106 | 17 | 281 | 9.7 | 25.7 | 0.00 | 0.00 | 0.00 | 30 | 1009.7 |
| 20260504151058 | 17 | 286 | 11.3 | 17.7 | 0.00 | 0.00 | 0.00 | 29 | 1009.8 |
| 20260504150558 | 17 | 284 | 11.3 | 17.7 | 0.00 | 0.00 | 0.00 | 29 | 1009.8 |
| 20260504141058 | 15 | 272 | 11.3 | 14.5 | 0.00 | 0.00 | 0.00 | 28 | 1010.0 |
| 20260504140558 | 15 | 261 | 8.0 | 12.9 | 0.00 | 0.00 | 0.00 | 29 | 1010.0 |
| 20260504140112 | 14 | 260 | 6.4 | 12.9 | 0.00 | 0.00 | 0.00 | 31 | 1009.9 |
| 20260504130602 | 7 | 0 | 0.0 | 1.6 | 0.00 | 0.00 | 0.00 | 57 | 1009.9 |
| 20260504120120 | 6 | 133 | 0.0 | 1.6 | 0.00 | 0.00 | 0.00 | 56 | 1009.6 |
| 20260504110559 | 7 | 0 | 0.0 | 1.6 | 0.00 | 0.00 | 0.00 | 54 | 1009.6 |
| 20260504110107 | 6 | 0 | 0.0 | 3.2 | 0.00 | 0.00 | 0.00 | 55 | 1009.7 |
| 20260504100559 | 6 | 0 | 0.0 | 3.2 | 0.00 | 0.00 | 0.00 | 53 | 1010.1 |
| 20260504100105 | 6 | 135 | 0.0 | 3.2 | 0.00 | 0.00 | 0.00 | 53 | 1010.1 |
| 20260504090106 | 6 | 42 | 0.0 | 3.2 | 0.00 | 0.00 | 0.00 | 52 | 1010.3 |
| 20260504081558 | 7 | 0 | 0.0 | 1.6 | 0.00 | 0.00 | 0.00 | 48 | 1010.7 |
| 20260504081058 | 8 | 0 | 0.0 | 3.2 | 0.00 | 0.00 | 0.00 | 48 | 1010.8 |
| 20260504080605 | 8 | 0 | 0.0 | 4.8 | 0.00 | 0.00 | 0.00 | 47 | 1010.8 |